Time;durP1;ratioP1;P1;durP2;ratioP2;P2;SDS_P1;SDS_P2;PMS_P1;PMS_P2;Temp;Humidity;BMP_temperature;BMP_pressure;BME280_temperature;BME280_humidity;BME280_pressure;Samples;Min_cycle;Max_cycle;Signal;HPM_P1;HPM_P2
2022/10/01 00:00:49;;;;;;;;;;;9.60;99.90;;;;;;4981840;28;19992;-77
2022/10/01 00:03:16;;;;;;;;;;;9.60;99.90;;;;;;4981948;28;19981;-77
2022/10/01 00:05:43;;;;;;;;;;;9.60;99.90;;;;;;4976285;28;19960;-76
2022/10/01 00:08:09;;;;;;;;;;;9.60;99.90;;;;;;4985782;28;20365;-76
2022/10/01 00:10:42;;;;;;;;;;;9.60;99.90;;;;;;4983303;28;19934;-77
2022/10/01 00:13:09;;;;;;;;;;;9.60;99.90;;;;;;4977800;28;20020;-77
2022/10/01 00:15:38;;;;;;;;;;;9.60;99.90;;;;;;4975557;28;20408;-77
2022/10/01 00:18:05;;;;;;;;;;;9.60;99.90;;;;;;4981152;28;20342;-77
2022/10/01 00:20:32;;;;;;;;;;;9.60;99.90;;;;;;4979504;28;20419;-77
2022/10/01 00:22:59;;;;;;;;;;;9.60;99.90;;;;;;4986164;28;20384;-77
2022/10/01 00:25:26;;;;;;;;;;;9.60;99.90;;;;;;4978459;28;19934;-77
2022/10/01 00:27:54;;;;;;;;;;;9.60;99.90;;;;;;4980481;28;19957;-77
2022/10/01 00:30:21;;;;;;;;;;;9.60;99.90;;;;;;4981470;28;20004;-77
2022/10/01 00:32:48;;;;;;;;;;;9.50;99.90;;;;;;4976304;28;19982;-77
2022/10/01 00:35:15;;;;;;;;;;;9.50;99.90;;;;;;4982433;28;20293;-77
2022/10/01 00:37:42;;;;;;;;;;;9.50;99.90;;;;;;4977941;28;20308;-78
2022/10/01 00:40:11;;;;;;;;;;;9.60;99.90;;;;;;4981455;28;20029;-77
2022/10/01 00:42:38;;;;;;;;;;;9.50;99.90;;;;;;4983345;28;19926;-78
2022/10/01 00:45:07;;;;;;;;;;;9.50;99.90;;;;;;4983551;28;19925;-77
2022/10/01 00:47:35;;;;;;;;;;;9.50;99.90;;;;;;4980233;28;19926;-77
2022/10/01 00:50:05;;;;;;;;;;;9.50;99.90;;;;;;4978029;28;19934;-77
2022/10/01 00:52:33;;;;;;;;;;;9.40;99.90;;;;;;4987092;28;19988;-77
2022/10/01 00:55:03;;;;;;;;;;;9.50;99.90;;;;;;4981161;28;20016;-77
2022/10/01 00:57:30;;;;;;;;;;;9.40;99.90;;;;;;4985270;28;20017;-77
2022/10/01 00:59:58;;;;;;;;;;;9.50;99.90;;;;;;4979740;28;20652;-77
2022/10/01 01:02:27;;;;;;;;;;;9.50;99.90;;;;;;4979874;28;20013;-77
2022/10/01 01:04:53;;;;;;;;;;;9.50;99.90;;;;;;4986827;28;19926;-78
2022/10/01 01:07:20;;;;;;;;;;;9.50;99.90;;;;;;4977430;28;19925;-77
2022/10/01 01:09:49;;;;;;;;;;;9.50;99.90;;;;;;4974412;28;19933;-78
2022/10/01 01:12:23;;;;;;;;;;;9.50;99.90;;;;;;4976726;28;19984;-77
2022/10/01 01:14:53;;;;;;;;;;;9.50;99.90;;;;;;4976120;28;20297;-77
2022/10/01 01:17:25;;;;;;;;;;;9.50;99.90;;;;;;4977275;28;19936;-77
2022/10/01 01:19:58;;;;;;;;;;;9.50;99.90;;;;;;4982333;28;19973;-78
2022/10/01 01:22:27;;;;;;;;;;;9.40;99.90;;;;;;4978713;28;19925;-78
2022/10/01 01:24:58;;;;;;;;;;;9.40;99.90;;;;;;4977286;28;20028;-77
2022/10/01 01:27:27;;;;;;;;;;;9.40;99.90;;;;;;4981174;28;20015;-78
2022/10/01 01:29:59;;;;;;;;;;;9.40;99.90;;;;;;4983226;28;19930;-77
2022/10/01 01:32:27;;;;;;;;;;;9.40;99.90;;;;;;4979942;28;19930;-78
2022/10/01 01:34:55;;;;;;;;;;;9.40;99.90;;;;;;4986577;28;19960;-77
2022/10/01 01:37:24;;;;;;;;;;;9.40;99.90;;;;;;4980726;28;20422;-77
2022/10/01 01:39:51;;;;;;;;;;;9.40;99.90;;;;;;4982032;28;19926;-77
2022/10/01 01:42:21;;;;;;;;;;;9.40;99.90;;;;;;4983530;28;19940;-78
2022/10/01 01:44:49;;;;;;;;;;;9.40;99.90;;;;;;4981776;28;19933;-77
2022/10/01 01:47:21;;;;;;;;;;;9.40;99.90;;;;;;4977275;28;19976;-77
2022/10/01 01:49:49;;;;;;;;;;;9.40;99.90;;;;;;4984529;28;20313;-77
2022/10/01 01:52:17;;;;;;;;;;;9.40;99.90;;;;;;4981868;28;19926;-77
2022/10/01 01:54:45;;;;;;;;;;;9.40;99.90;;;;;;4981574;28;19933;-77
2022/10/01 01:57:13;;;;;;;;;;;9.30;99.90;;;;;;4981528;28;20311;-77
2022/10/01 01:59:40;;;;;;;;;;;9.30;99.90;;;;;;4984362;28;20584;-77
2022/10/01 02:02:07;;;;;;;;;;;9.30;99.90;;;;;;4986965;28;19968;-77
2022/10/01 02:04:38;;;;;;;;;;;9.30;99.90;;;;;;4977654;28;19952;-77
2022/10/01 02:07:21;;;;;;;;;;;9.30;99.90;;;;;;4978137;28;20278;-78
2022/10/01 02:09:51;;;;;;;;;;;9.20;99.90;;;;;;4983297;28;19932;-77
2022/10/01 02:12:23;;;;;;;;;;;9.20;99.90;;;;;;4972671;28;20025;-77
2022/10/01 02:14:52;;;;;;;;;;;9.20;99.90;;;;;;4978898;28;19948;-77
2022/10/01 02:17:26;;;;;;;;;;;9.20;99.90;;;;;;4974259;28;20025;-77
2022/10/01 02:19:56;;;;;;;;;;;9.30;99.90;;;;;;4972530;28;19934;-78
2022/10/01 02:22:24;;;;;;;;;;;9.30;99.90;;;;;;4976040;28;19981;-77
2022/10/01 02:24:55;;;;;;;;;;;9.20;99.90;;;;;;4982683;28;19972;-77
2022/10/01 02:27:26;;;;;;;;;;;9.30;99.90;;;;;;4983194;28;19929;-77
2022/10/01 02:29:55;;;;;;;;;;;9.20;99.90;;;;;;4975709;28;19997;-77
2022/10/01 02:32:22;;;;;;;;;;;9.20;99.90;;;;;;4977207;28;19969;-77
2022/10/01 02:34:50;;;;;;;;;;;9.20;99.90;;;;;;4974302;28;20286;-77
2022/10/01 02:37:19;;;;;;;;;;;9.20;99.90;;;;;;4978265;28;20013;-78
2022/10/01 02:39:47;;;;;;;;;;;9.20;99.90;;;;;;4975935;28;19926;-78
2022/10/01 02:42:16;;;;;;;;;;;9.20;99.90;;;;;;4980234;28;20009;-77
2022/10/01 02:44:44;;;;;;;;;;;9.20;99.90;;;;;;4980315;28;19963;-78
2022/10/01 02:47:14;;;;;;;;;;;9.10;99.90;;;;;;4978671;28;20000;-77
2022/10/01 02:49:41;;;;;;;;;;;9.20;99.90;;;;;;4981703;28;19969;-78
2022/10/01 02:52:12;;;;;;;;;;;9.10;99.90;;;;;;4980963;28;19962;-79
2022/10/01 02:54:45;;;;;;;;;;;9.10;99.90;;;;;;4976724;28;20044;-77
2022/10/01 02:57:26;;;;;;;;;;;9.10;99.90;;;;;;4979960;28;19930;-77
2022/10/01 02:59:53;;;;;;;;;;;9.10;99.90;;;;;;4983853;28;19930;-78
2022/10/01 03:02:21;;;;;;;;;;;9.10;99.90;;;;;;4983805;28;20419;-77
2022/10/01 03:04:48;;;;;;;;;;;9.10;99.90;;;;;;4983055;28;20405;-77
2022/10/01 03:07:15;;;;;;;;;;;9.20;99.90;;;;;;4985405;28;20365;-77
2022/10/01 03:09:43;;;;;;;;;;;9.10;99.90;;;;;;4981826;28;20395;-77
2022/10/01 03:12:10;;;;;;;;;;;9.10;99.90;;;;;;4977911;28;20028;-78
2022/10/01 03:14:38;;;;;;;;;;;9.10;99.90;;;;;;4985122;28;19973;-77
2022/10/01 03:17:05;;;;;;;;;;;9.10;99.90;;;;;;4981224;28;19926;-77
2022/10/01 03:19:31;;;;;;;;;;;9.10;99.90;;;;;;4978621;28;19988;-77
2022/10/01 03:21:58;;;;;;;;;;;9.10;99.90;;;;;;4989671;28;20028;-77
2022/10/01 03:24:27;;;;;;;;;;;9.10;99.90;;;;;;4976147;28;19926;-77
2022/10/01 03:26:56;;;;;;;;;;;9.10;99.90;;;;;;4979050;28;20025;-77
2022/10/01 03:29:23;;;;;;;;;;;9.10;99.90;;;;;;4984105;28;19930;-77
2022/10/01 03:31:50;;;;;;;;;;;9.10;99.90;;;;;;4984516;28;20092;-78
2022/10/01 03:34:17;;;;;;;;;;;9.00;99.90;;;;;;4978905;28;20013;-77
2022/10/01 03:36:44;;;;;;;;;;;9.00;99.90;;;;;;4987899;28;19925;-76
2022/10/01 03:39:10;;;;;;;;;;;9.00;99.90;;;;;;4981067;28;20020;-77
2022/10/01 03:41:37;;;;;;;;;;;9.10;99.90;;;;;;4986848;28;20024;-77
2022/10/01 03:44:05;;;;;;;;;;;9.00;99.90;;;;;;4977661;28;20305;-77
2022/10/01 03:46:32;;;;;;;;;;;9.00;99.90;;;;;;4989978;28;19934;-77
2022/10/01 03:48:59;;;;;;;;;;;9.00;99.90;;;;;;4976275;28;20019;-77
2022/10/01 03:51:27;;;;;;;;;;;9.00;99.90;;;;;;4979966;28;20389;-77
2022/10/01 03:53:54;;;;;;;;;;;9.00;99.90;;;;;;4981380;28;20025;-77
2022/10/01 03:56:20;;;;;;;;;;;9.00;99.90;;;;;;4981081;28;19932;-78
2022/10/01 03:58:47;;;;;;;;;;;9.00;99.90;;;;;;4984742;28;20400;-77
2022/10/01 04:01:16;;;;;;;;;;;9.00;99.90;;;;;;4984181;28;19930;-77
2022/10/01 04:03:43;;;;;;;;;;;9.00;99.90;;;;;;4984563;28;20364;-77
2022/10/01 04:06:09;;;;;;;;;;;9.00;99.90;;;;;;4983206;28;19955;-78
2022/10/01 04:08:37;;;;;;;;;;;9.00;99.90;;;;;;4984988;28;20316;-79
2022/10/01 04:11:04;;;;;;;;;;;9.00;99.90;;;;;;4977321;28;20397;-77
2022/10/01 04:13:31;;;;;;;;;;;9.00;99.90;;;;;;4978660;28;19925;-77
2022/10/01 04:15:58;;;;;;;;;;;9.00;99.90;;;;;;4984183;28;19961;-77
2022/10/01 04:18:26;;;;;;;;;;;9.00;99.90;;;;;;4985780;28;19933;-77
2022/10/01 04:20:53;;;;;;;;;;;9.00;99.90;;;;;;4984066;28;19973;-78
2022/10/01 04:23:19;;;;;;;;;;;9.00;99.90;;;;;;4981299;28;20021;-77
2022/10/01 04:25:46;;;;;;;;;;;9.00;99.90;;;;;;4979612;28;20371;-77
2022/10/01 04:28:13;;;;;;;;;;;9.00;99.90;;;;;;4980864;28;20024;-78
2022/10/01 04:30:41;;;;;;;;;;;9.00;99.90;;;;;;4976866;28;20733;-77
2022/10/01 04:33:09;;;;;;;;;;;9.00;99.90;;;;;;4983505;28;19926;-77
2022/10/01 04:35:38;;;;;;;;;;;9.00;99.90;;;;;;4985128;28;19937;-77
2022/10/01 04:38:05;;;;;;;;;;;9.00;99.90;;;;;;4979006;28;20414;-77
2022/10/01 04:40:34;;;;;;;;;;;9.00;99.90;;;;;;4982185;28;19925;-77
2022/10/01 04:43:01;;;;;;;;;;;9.00;99.90;;;;;;4979350;28;20297;-77
2022/10/01 04:45:27;;;;;;;;;;;9.00;99.90;;;;;;4979917;28;20004;-77
2022/10/01 04:47:55;;;;;;;;;;;9.00;99.90;;;;;;4982518;28;20016;-77
2022/10/01 04:50:22;;;;;;;;;;;9.00;99.90;;;;;;4982041;28;19933;-77
2022/10/01 04:52:51;;;;;;;;;;;9.00;99.90;;;;;;4979312;28;19926;-77
2022/10/01 04:55:18;;;;;;;;;;;8.90;99.90;;;;;;4978515;28;19932;-77
2022/10/01 04:57:46;;;;;;;;;;;8.90;99.90;;;;;;4981118;28;20452;-78
2022/10/01 05:00:13;;;;;;;;;;;8.90;99.90;;;;;;4981682;28;19930;-77
2022/10/01 05:02:40;;;;;;;;;;;8.90;99.90;;;;;;4986089;28;20460;-77
2022/10/01 05:05:07;;;;;;;;;;;8.90;99.90;;;;;;4985211;28;20028;-77
2022/10/01 05:07:34;;;;;;;;;;;8.90;99.90;;;;;;4978152;28;20029;-78
2022/10/01 05:10:03;;;;;;;;;;;8.90;99.90;;;;;;4978341;28;20386;-78
2022/10/01 05:12:32;;;;;;;;;;;8.90;99.90;;;;;;4983655;28;20335;-77
2022/10/01 05:14:59;;;;;;;;;;;8.90;99.90;;;;;;4978403;28;19934;-78
2022/10/01 05:17:26;;;;;;;;;;;8.90;99.90;;;;;;4981580;28;20339;-79
2022/10/01 05:19:53;;;;;;;;;;;9.00;99.90;;;;;;4977358;28;20427;-77
2022/10/01 05:22:20;;;;;;;;;;;8.90;99.90;;;;;;4978294;28;19926;-77
2022/10/01 05:24:46;;;;;;;;;;;8.90;99.90;;;;;;4981678;28;19926;-77
2022/10/01 05:27:15;;;;;;;;;;;8.90;99.90;;;;;;4982933;28;19934;-77
2022/10/01 05:29:41;;;;;;;;;;;8.90;99.90;;;;;;4986414;28;20008;-77
2022/10/01 05:32:09;;;;;;;;;;;8.90;99.90;;;;;;4975725;28;19933;-78
2022/10/01 05:34:36;;;;;;;;;;;8.90;99.90;;;;;;4982477;28;20385;-77
2022/10/01 05:37:03;;;;;;;;;;;8.90;99.90;;;;;;4971377;28;20320;-77
2022/10/01 05:39:30;;;;;;;;;;;8.90;99.90;;;;;;4980086;28;20448;-78
2022/10/01 05:41:57;;;;;;;;;;;8.90;99.90;;;;;;4977597;28;20311;-77
2022/10/01 05:44:25;;;;;;;;;;;8.90;99.90;;;;;;4982456;28;20028;-78
2022/10/01 05:46:53;;;;;;;;;;;8.90;99.90;;;;;;4983970;28;19926;-77
2022/10/01 05:49:19;;;;;;;;;;;8.90;99.90;;;;;;4981680;28;19926;-77
2022/10/01 05:51:46;;;;;;;;;;;8.90;99.90;;;;;;4976651;28;19977;-78
2022/10/01 05:54:18;;;;;;;;;;;8.90;99.90;;;;;;4979497;28;19933;-77
2022/10/01 05:56:45;;;;;;;;;;;8.90;99.90;;;;;;4975067;28;19940;-77
2022/10/01 05:59:12;;;;;;;;;;;8.90;99.90;;;;;;4980029;28;19933;-77
2022/10/01 06:01:40;;;;;;;;;;;9.00;99.90;;;;;;4977099;28;19927;-77
2022/10/01 06:04:07;;;;;;;;;;;8.90;99.90;;;;;;4980078;28;19930;-77
2022/10/01 06:06:33;;;;;;;;;;;8.90;99.90;;;;;;4985213;28;20179;-79
2022/10/01 06:09:01;;;;;;;;;;;9.00;99.90;;;;;;4981869;28;20389;-78
2022/10/01 06:11:28;;;;;;;;;;;8.90;99.90;;;;;;4983120;28;19926;-77
2022/10/01 06:13:55;;;;;;;;;;;9.00;99.90;;;;;;4983285;28;19930;-76
2022/10/01 06:16:22;;;;;;;;;;;8.90;99.90;;;;;;4978492;28;20512;-77
2022/10/01 06:18:56;;;;;;;;;;;8.90;99.90;;;;;;4980098;28;20020;-76
2022/10/01 06:21:24;;;;;;;;;;;8.90;99.90;;;;;;4981179;28;20392;-78
2022/10/01 06:23:52;;;;;;;;;;;8.90;99.90;;;;;;4977152;28;19934;-77
2022/10/01 06:26:21;;;;;;;;;;;8.90;99.90;;;;;;4982634;28;19949;-77
2022/10/01 06:28:49;;;;;;;;;;;8.90;99.90;;;;;;4988809;28;19969;-76
2022/10/01 06:31:16;;;;;;;;;;;8.90;99.90;;;;;;4985349;28;20385;-78
2022/10/01 06:33:44;;;;;;;;;;;8.90;99.90;;;;;;4986619;28;20415;-77
2022/10/01 06:36:12;;;;;;;;;;;8.90;99.90;;;;;;4986254;28;19926;-77
2022/10/01 06:38:39;;;;;;;;;;;8.90;99.90;;;;;;4990390;28;19964;-78
2022/10/01 06:41:07;;;;;;;;;;;8.90;99.90;;;;;;4984288;28;20369;-78
2022/10/01 06:43:34;;;;;;;;;;;8.90;99.90;;;;;;4981529;28;19926;-77
2022/10/01 06:46:02;;;;;;;;;;;8.90;99.90;;;;;;4979273;28;20404;-78
2022/10/01 06:48:30;;;;;;;;;;;8.90;99.90;;;;;;4969766;28;20053;-78
2022/10/01 06:50:57;;;;;;;;;;;8.90;99.90;;;;;;4979033;28;19926;-77
2022/10/01 06:53:26;;;;;;;;;;;8.90;99.90;;;;;;4978830;28;19930;-77
2022/10/01 06:55:54;;;;;;;;;;;9.00;99.90;;;;;;4981018;28;19969;-77
2022/10/01 06:58:21;;;;;;;;;;;9.00;99.90;;;;;;4977309;28;20355;-78
2022/10/01 07:00:49;;;;;;;;;;;8.90;99.90;;;;;;4983458;28;20120;-77
2022/10/01 07:03:17;;;;;;;;;;;8.90;99.90;;;;;;4975432;28;22209;-78
2022/10/01 07:05:44;;;;;;;;;;;8.90;99.90;;;;;;4995353;28;19941;-77
2022/10/01 07:08:11;;;;;;;;;;;9.00;99.90;;;;;;4969995;28;20018;-77
2022/10/01 07:10:40;;;;;;;;;;;9.00;99.90;;;;;;4965648;28;19926;-77
2022/10/01 07:13:07;;;;;;;;;;;8.90;99.90;;;;;;4973402;28;19934;-78
2022/10/01 07:15:34;;;;;;;;;;;9.00;99.90;;;;;;4979183;28;20045;-78
2022/10/01 07:18:01;;;;;;;;;;;9.00;99.90;;;;;;4978726;28;19976;-79
2022/10/01 07:20:28;;;;;;;;;;;9.00;99.90;;;;;;4974760;28;19933;-78
2022/10/01 07:22:56;;;;;;;;;;;9.00;99.90;;;;;;4985131;28;19932;-77
2022/10/01 07:25:24;;;;;;;;;;;9.00;99.90;;;;;;4973465;28;21596;-77
2022/10/01 07:27:54;;;;;;;;;;;9.00;99.90;;;;;;4976967;28;19976;-78
2022/10/01 07:30:23;;;;;;;;;;;9.00;99.90;;;;;;4975047;28;19997;-75
2022/10/01 07:32:50;;;;;;;;;;;9.00;99.90;;;;;;4970751;28;19959;-75
2022/10/01 07:35:19;;;;;;;;;;;9.00;99.90;;;;;;4977164;28;20016;-75
2022/10/01 07:37:46;;;;;;;;;;;9.00;99.90;;;;;;4976726;28;19968;-77
2022/10/01 07:40:15;;;;;;;;;;;9.00;99.90;;;;;;4974650;28;20351;-76
2022/10/01 07:42:43;;;;;;;;;;;9.00;99.90;;;;;;4972746;28;20087;-76
2022/10/01 07:45:12;;;;;;;;;;;9.00;99.90;;;;;;4976152;28;19930;-76
2022/10/01 07:47:38;;;;;;;;;;;9.00;99.90;;;;;;4969908;28;20024;-76
2022/10/01 07:50:06;;;;;;;;;;;9.00;99.90;;;;;;4972025;28;20466;-76
2022/10/01 07:52:32;;;;;;;;;;;9.00;99.90;;;;;;4974409;28;19934;-75
2022/10/01 07:55:00;;;;;;;;;;;9.00;99.90;;;;;;4974259;28;19985;-75
2022/10/01 07:57:27;;;;;;;;;;;9.00;99.90;;;;;;4980871;28;19926;-76
2022/10/01 07:59:54;;;;;;;;;;;9.00;99.90;;;;;;4975329;28;19937;-76
2022/10/01 08:02:22;;;;;;;;;;;9.00;99.90;;;;;;4978914;28;19998;-76
2022/10/01 08:07:34;;;;;;;;;;;9.10;99.90;;;;;;4981353;28;19926;-75
2022/10/01 08:10:03;;;;;;;;;;;9.00;99.90;;;;;;4976658;28;19926;-78
2022/10/01 08:12:29;;;;;;;;;;;9.10;99.90;;;;;;4978952;28;19933;-75
2022/10/01 08:14:57;;;;;;;;;;;9.10;99.90;;;;;;4974399;28;19960;-75
2022/10/01 08:17:31;;;;;;;;;;;9.10;99.90;;;;;;4978932;28;22763;-77
2022/10/01 08:20:00;;;;;;;;;;;9.10;99.90;;;;;;4979914;28;19930;-76
2022/10/01 08:22:27;;;;;;;;;;;9.10;99.90;;;;;;4978912;28;20020;-76
2022/10/01 08:24:54;;;;;;;;;;;9.10;99.90;;;;;;4976899;28;19937;-78
2022/10/01 08:27:23;;;;;;;;;;;9.10;99.90;;;;;;4977248;28;19996;-77
2022/10/01 08:29:50;;;;;;;;;;;9.10;99.90;;;;;;5031108;22;20397;-76
2022/10/01 08:32:16;;;;;;;;;;;9.30;99.90;;;;;;4984361;28;20204;-78
2022/10/01 08:34:45;;;;;;;;;;;9.30;99.90;;;;;;4978543;28;20604;-77
2022/10/01 08:37:13;;;;;;;;;;;9.20;99.90;;;;;;4974242;28;19926;-79
2022/10/01 08:39:40;;;;;;;;;;;9.20;99.90;;;;;;4968472;28;20312;-81
2022/10/01 08:42:16;;;;;;;;;;;9.20;99.90;;;;;;4980909;28;19929;-80
2022/10/01 09:28:44;;;;;;;;;;;9.30;99.90;;;;;;4983787;28;19932;-80
2022/10/01 09:43:11;;;;;;;;;;;9.30;99.90;;;;;;5505214;22;20208;-87
2022/10/01 09:45:40;;;;;;;;;;;9.30;99.90;;;;;;4998346;28;19929;-86
2022/10/01 09:50:43;;;;;;;;;;;9.30;99.90;;;;;;5109930;23;20391;-77
2022/10/01 09:53:13;;;;;;;;;;;9.30;99.90;;;;;;4935201;28;20118;-76
2022/10/01 09:55:42;;;;;;;;;;;9.30;99.90;;;;;;4957687;28;19934;-77
2022/10/01 09:58:10;;;;;;;;;;;9.30;99.90;;;;;;4953810;28;19934;-77
2022/10/01 10:00:39;;;;;;;;;;;9.30;99.90;;;;;;4972733;28;20790;-77
2022/10/01 10:03:06;;;;;;;;;;;9.30;99.90;;;;;;4977987;28;19925;-77
2022/10/01 10:05:40;;;;;;;;;;;9.30;99.90;;;;;;4977250;28;19961;-77
2022/10/01 10:08:11;;;;;;;;;;;9.40;99.90;;;;;;4973756;28;19961;-77
2022/10/01 10:10:39;;;;;;;;;;;9.40;99.90;;;;;;4963439;28;19965;-77
2022/10/01 10:13:17;;;;;;;;;;;9.40;99.90;;;;;;4942315;28;19934;-76
2022/10/01 10:15:49;;;;;;;;;;;9.40;99.90;;;;;;4957104;28;19930;-77
2022/10/01 10:18:17;;;;;;;;;;;9.40;99.90;;;;;;4960279;28;20027;-76
2022/10/01 10:20:45;;;;;;;;;;;9.40;99.90;;;;;;4967887;28;19968;-78
2022/10/01 10:23:15;;;;;;;;;;;9.40;99.90;;;;;;4947626;28;19934;-78
2022/10/01 10:25:54;;;;;;;;;;;9.40;99.90;;;;;;4927032;28;20084;-77
2022/10/01 10:28:22;;;;;;;;;;;9.40;99.90;;;;;;4956621;28;19930;-77
2022/10/01 10:30:52;;;;;;;;;;;9.40;99.90;;;;;;4964658;28;20018;-77
2022/10/01 10:33:20;;;;;;;;;;;9.40;99.90;;;;;;4970687;28;19934;-79
2022/10/01 10:35:56;;;;;;;;;;;9.40;99.90;;;;;;4946663;28;19964;-77
2022/10/01 10:38:25;;;;;;;;;;;9.40;99.90;;;;;;4974018;28;19984;-76
2022/10/01 10:40:52;;;;;;;;;;;9.40;99.90;;;;;;4974382;28;20517;-75
2022/10/01 10:43:21;;;;;;;;;;;9.40;99.90;;;;;;4970389;28;19929;-77
2022/10/01 10:45:54;;;;;;;;;;;9.40;99.90;;;;;;4960408;28;20020;-78
2022/10/01 10:48:22;;;;;;;;;;;9.40;99.90;;;;;;4979139;28;19984;-77
2022/10/01 10:50:49;;;;;;;;;;;9.40;99.90;;;;;;4964025;28;19937;-77
2022/10/01 10:53:20;;;;;;;;;;;9.40;99.90;;;;;;4969659;28;20024;-77
2022/10/01 10:55:55;;;;;;;;;;;9.40;99.90;;;;;;4969512;28;20417;-77
2022/10/01 10:58:24;;;;;;;;;;;9.50;99.90;;;;;;4970701;28;19926;-78
2022/10/01 11:00:53;;;;;;;;;;;9.50;99.90;;;;;;4963109;28;20211;-79
2022/10/01 11:03:22;;;;;;;;;;;9.50;99.90;;;;;;4974598;28;19938;-78
2022/10/01 11:05:50;;;;;;;;;;;9.50;99.90;;;;;;4976340;28;20383;-81
2022/10/01 11:08:19;;;;;;;;;;;9.50;99.90;;;;;;4974417;28;20482;-78
2022/10/01 11:10:52;;;;;;;;;;;9.50;99.90;;;;;;4972468;28;19985;-78
2022/10/01 11:13:31;;;;;;;;;;;9.40;99.90;;;;;;4984404;28;19929;-77
2022/10/01 11:16:07;;;;;;;;;;;9.50;99.90;;;;;;4973215;28;19926;-81
2022/10/01 11:18:54;;;;;;;;;;;9.50;99.90;;;;;;4943650;28;19945;-77
2022/10/01 11:21:32;;;;;;;;;;;9.50;99.90;;;;;;4966454;28;19934;-77
2022/10/01 11:24:05;;;;;;;;;;;9.50;99.90;;;;;;4964643;28;20386;-77
2022/10/01 11:26:37;;;;;;;;;;;9.50;99.90;;;;;;4952680;28;19926;-78
2022/10/01 11:29:10;;;;;;;;;;;9.50;99.90;;;;;;4971032;28;19940;-77
2022/10/01 11:31:45;;;;;;;;;;;9.50;99.90;;;;;;4965917;28;19933;-77
2022/10/01 11:34:18;;;;;;;;;;;9.50;99.90;;;;;;4978336;28;19925;-76
2022/10/01 11:36:47;;;;;;;;;;;9.50;99.90;;;;;;4959144;28;19926;-78
2022/10/01 11:39:15;;;;;;;;;;;9.50;99.90;;;;;;4970070;28;19938;-77
2022/10/01 11:41:44;;;;;;;;;;;9.50;99.90;;;;;;4960004;28;19933;-76
2022/10/01 11:44:14;;;;;;;;;;;9.50;99.90;;;;;;4966040;28;20482;-76
2022/10/01 11:46:48;;;;;;;;;;;9.50;99.90;;;;;;4971655;28;20012;-76
2022/10/01 11:49:20;;;;;;;;;;;9.60;99.90;;;;;;4973754;28;20682;-76
2022/10/01 11:51:50;;;;;;;;;;;9.60;99.90;;;;;;4965560;28;19999;-76
2022/10/01 11:54:20;;;;;;;;;;;9.60;99.90;;;;;;4967746;28;20066;-76
2022/10/01 11:59:36;;;;;;;;;;;9.60;99.90;;;;;;4974394;28;19960;-81
2022/10/01 12:02:09;;;;;;;;;;;9.60;99.90;;;;;;4968575;28;19957;-76
2022/10/01 12:04:38;;;;;;;;;;;9.70;99.90;;;;;;4969353;28;19941;-76
2022/10/01 12:07:12;;;;;;;;;;;9.60;99.90;;;;;;4962513;28;19954;-76
2022/10/01 12:09:46;;;;;;;;;;;9.60;99.90;;;;;;4960370;28;19946;-76
2022/10/01 12:12:17;;;;;;;;;;;9.60;99.90;;;;;;4982649;28;20280;-76
2022/10/01 12:14:45;;;;;;;;;;;9.60;99.90;;;;;;4975802;28;20024;-77
2022/10/01 12:17:18;;;;;;;;;;;9.60;99.90;;;;;;4961536;28;19926;-76
2022/10/01 12:19:49;;;;;;;;;;;9.60;99.90;;;;;;4975704;28;19984;-76
2022/10/01 12:22:20;;;;;;;;;;;9.60;99.90;;;;;;4975428;28;20407;-76
2022/10/01 12:24:47;;;;;;;;;;;9.60;99.90;;;;;;4980650;28;19933;-76
2022/10/01 12:27:22;;;;;;;;;;;9.60;99.90;;;;;;4975087;28;19926;-76
2022/10/01 12:29:51;;;;;;;;;;;9.70;99.90;;;;;;4977636;28;19970;-76
2022/10/01 12:32:29;;;;;;;;;;;9.70;99.90;;;;;;4950198;28;20482;-76
2022/10/01 12:35:01;;;;;;;;;;;9.70;99.90;;;;;;4957538;28;20116;-76
2022/10/01 12:37:33;;;;;;;;;;;9.70;99.90;;;;;;4960652;28;19932;-76
2022/10/01 12:40:09;;;;;;;;;;;9.70;99.90;;;;;;4981042;28;19930;-76
2022/10/01 12:42:42;;;;;;;;;;;9.70;99.90;;;;;;4976242;28;19930;-76
2022/10/01 12:45:19;;;;;;;;;;;9.70;99.90;;;;;;4978942;28;20032;-76
2022/10/01 12:47:52;;;;;;;;;;;9.70;99.90;;;;;;4979397;28;20752;-76
2022/10/01 12:50:26;;;;;;;;;;;9.70;99.90;;;;;;4972484;28;20060;-76
2022/10/01 12:53:07;;;;;;;;;;;9.70;99.90;;;;;;4973390;28;19934;-76
2022/10/01 12:55:43;;;;;;;;;;;9.70;99.90;;;;;;4967711;28;19930;-77
2022/10/01 12:58:12;;;;;;;;;;;9.80;99.90;;;;;;4982221;28;19972;-77
2022/10/01 13:00:41;;;;;;;;;;;9.80;99.90;;;;;;4972918;28;20450;-77
2022/10/01 13:03:23;;;;;;;;;;;9.80;99.90;;;;;;4981326;28;20486;-76
2022/10/01 13:05:56;;;;;;;;;;;9.80;99.90;;;;;;4973198;28;20013;-76
2022/10/01 13:08:34;;;;;;;;;;;9.80;99.90;;;;;;4980263;28;19957;-76
2022/10/01 13:11:05;;;;;;;;;;;9.80;99.90;;;;;;4973856;28;19996;-77
2022/10/01 13:13:32;;;;;;;;;;;9.80;99.90;;;;;;4974773;28;19949;-76
2022/10/01 13:16:02;;;;;;;;;;;9.80;99.90;;;;;;4976462;28;19936;-76
2022/10/01 13:18:36;;;;;;;;;;;9.80;99.90;;;;;;4979378;28;19969;-76
2022/10/01 13:21:06;;;;;;;;;;;9.80;99.90;;;;;;4962093;28;19934;-76
2022/10/01 13:23:38;;;;;;;;;;;9.80;99.90;;;;;;4979603;28;20286;-76
2022/10/01 13:26:08;;;;;;;;;;;9.90;99.90;;;;;;4976725;28;19933;-76
2022/10/01 13:28:48;;;;;;;;;;;9.80;99.90;;;;;;4986417;28;20016;-76
2022/10/01 13:31:17;;;;;;;;;;;9.90;99.90;;;;;;4970958;28;20601;-76
2022/10/01 13:33:55;;;;;;;;;;;9.90;99.90;;;;;;4956504;28;19926;-76
2022/10/01 13:36:28;;;;;;;;;;;9.90;99.90;;;;;;4979734;28;19930;-77
2022/10/01 13:38:55;;;;;;;;;;;9.90;99.90;;;;;;4957139;28;20390;-77
2022/10/01 13:41:23;;;;;;;;;;;9.90;99.90;;;;;;4982030;28;19926;-76
2022/10/01 13:43:55;;;;;;;;;;;9.90;99.90;;;;;;4976487;28;19956;-76
2022/10/01 13:46:23;;;;;;;;;;;9.90;99.90;;;;;;4979678;28;19925;-76
2022/10/01 13:48:50;;;;;;;;;;;9.90;99.90;;;;;;4970848;28;19926;-76
2022/10/01 13:51:19;;;;;;;;;;;9.90;99.90;;;;;;4959769;28;20463;-76
2022/10/01 13:53:48;;;;;;;;;;;10.00;99.90;;;;;;4978876;28;19926;-76
2022/10/01 13:56:26;;;;;;;;;;;10.00;99.90;;;;;;4974190;28;19933;-77
2022/10/01 13:58:53;;;;;;;;;;;10.00;99.90;;;;;;4980745;28;19973;-76
2022/10/01 14:01:28;;;;;;;;;;;10.00;99.90;;;;;;4976653;28;19934;-76
2022/10/01 14:03:58;;;;;;;;;;;10.00;99.90;;;;;;4957410;28;20004;-77
2022/10/01 14:06:29;;;;;;;;;;;10.00;99.90;;;;;;4974021;28;19930;-76
2022/10/01 14:08:59;;;;;;;;;;;10.10;99.90;;;;;;4974509;28;20415;-76
2022/10/01 14:16:58;;;;;;;;;;;10.10;99.90;;;;;;4978100;28;19930;-76
2022/10/01 14:19:27;;;;;;;;;;;10.10;99.90;;;;;;4956955;28;19985;-76
2022/10/01 14:22:02;;;;;;;;;;;10.10;99.90;;;;;;4977183;28;20017;-76
2022/10/01 14:24:32;;;;;;;;;;;10.10;99.90;;;;;;4981070;28;19925;-77
2022/10/01 14:27:02;;;;;;;;;;;10.20;99.90;;;;;;4976337;28;19933;-76
2022/10/01 14:29:37;;;;;;;;;;;10.20;99.90;;;;;;4978298;28;19961;-77
2022/10/01 14:32:11;;;;;;;;;;;10.20;99.90;;;;;;4970200;28;19965;-76
2022/10/01 14:34:41;;;;;;;;;;;10.20;99.90;;;;;;4975913;28;19933;-76
2022/10/01 14:37:11;;;;;;;;;;;10.20;99.90;;;;;;4967878;28;19942;-76
2022/10/01 14:39:38;;;;;;;;;;;10.20;99.90;;;;;;4962643;28;19976;-77
2022/10/01 14:42:08;;;;;;;;;;;10.20;99.90;;;;;;4973800;28;19955;-76
2022/10/01 14:44:37;;;;;;;;;;;10.30;99.90;;;;;;4956596;28;20016;-76
2022/10/01 14:47:12;;;;;;;;;;;10.30;99.90;;;;;;4975777;28;20008;-76
2022/10/01 14:49:39;;;;;;;;;;;10.30;99.90;;;;;;4966017;28;19933;-76
2022/10/01 14:52:06;;;;;;;;;;;10.30;99.90;;;;;;4968881;28;19964;-77
2022/10/01 14:54:43;;;;;;;;;;;10.30;99.90;;;;;;4976818;28;19989;-77
2022/10/01 14:57:11;;;;;;;;;;;10.40;99.90;;;;;;4977524;28;19953;-76
2022/10/01 14:59:39;;;;;;;;;;;10.30;99.90;;;;;;4979946;28;19932;-77
2022/10/01 15:02:16;;;;;;;;;;;10.30;99.90;;;;;;4982246;28;20367;-77
2022/10/01 15:04:45;;;;;;;;;;;10.30;99.90;;;;;;4977262;28;20384;-76
2022/10/01 15:07:13;;;;;;;;;;;10.40;99.90;;;;;;4972377;28;20006;-76
2022/10/01 15:09:41;;;;;;;;;;;10.40;99.90;;;;;;4981637;28;19968;-77
2022/10/01 15:12:08;;;;;;;;;;;10.40;99.90;;;;;;4984055;28;20195;-77
2022/10/01 15:14:36;;;;;;;;;;;10.40;99.90;;;;;;4983199;28;20013;-77
2022/10/01 15:17:04;;;;;;;;;;;10.40;99.90;;;;;;4981232;28;20426;-76
2022/10/01 15:19:31;;;;;;;;;;;10.40;99.90;;;;;;4964976;28;20032;-77
2022/10/01 15:21:59;;;;;;;;;;;10.40;99.90;;;;;;4981917;28;19930;-77
2022/10/01 15:24:32;;;;;;;;;;;10.40;99.90;;;;;;4962174;28;19926;-76
2022/10/01 15:27:00;;;;;;;;;;;10.50;99.90;;;;;;4983081;28;19936;-76
2022/10/01 15:29:27;;;;;;;;;;;10.50;99.90;;;;;;4968389;28;20429;-77
2022/10/01 15:31:56;;;;;;;;;;;10.50;99.90;;;;;;4984018;28;20351;-77
2022/10/01 15:34:24;;;;;;;;;;;10.50;99.90;;;;;;4974840;28;19926;-76
2022/10/01 15:36:52;;;;;;;;;;;10.50;99.90;;;;;;4979005;28;19973;-77
2022/10/01 15:39:25;;;;;;;;;;;10.50;99.90;;;;;;4982451;28;19926;-76
2022/10/01 15:41:53;;;;;;;;;;;10.50;99.90;;;;;;4980527;28;20375;-76
2022/10/01 15:44:38;;;;;;;;;;;10.50;99.90;;;;;;4982872;28;19929;-77
2022/10/01 15:47:20;;;;;;;;;;;10.50;99.90;;;;;;4982118;28;20072;-77
2022/10/01 15:50:00;;;;;;;;;;;10.50;99.90;;;;;;4978425;28;19926;-77